sensor_id;sensor_type;location;lat;lon;timestamp;pressure;altitude;pressure_sealevel;temperature;humidity
6198;BME280;3132;42.622;23.328;2022-11-14T00:00:13;93863.81;;;4.26;100.00
6198;BME280;3132;42.622;23.328;2022-11-14T00:02:39;93874.72;;;4.28;100.00
6198;BME280;3132;42.622;23.328;2022-11-14T00:05:05;93870.34;;;4.29;100.00
6198;BME280;3132;42.622;23.328;2022-11-14T00:07:32;93867.63;;;4.17;100.00
6198;BME280;3132;42.622;23.328;2022-11-14T00:09:58;93860.09;;;4.16;100.00
6198;BME280;3132;42.622;23.328;2022-11-14T00:12:24;93866.41;;;4.26;100.00
6198;BME280;3132;42.622;23.328;2022-11-14T00:14:49;93864.03;;;4.25;100.00
6198;BME280;3132;42.622;23.328;2022-11-14T00:17:16;93869.66;;;4.15;100.00
6198;BME280;3132;42.622;23.328;2022-11-14T00:19:41;93868.06;;;4.14;100.00
6198;BME280;3132;42.622;23.328;2022-11-14T00:22:06;93873.69;;;4.05;100.00
6198;BME280;3132;42.622;23.328;2022-11-14T00:24:32;93865.72;;;4.06;100.00
6198;BME280;3132;42.622;23.328;2022-11-14T00:26:57;93867.31;;;4.07;100.00
6198;BME280;3132;42.622;23.328;2022-11-14T00:29:22;93871.66;;;4.13;100.00
6198;BME280;3132;42.622;23.328;2022-11-14T00:31:48;93871.69;;;4.07;100.00
6198;BME280;3132;42.622;23.328;2022-11-14T00:34:13;93860.16;;;4.09;100.00
6198;BME280;3132;42.622;23.328;2022-11-14T00:36:38;93867.63;;;4.17;100.00
6198;BME280;3132;42.622;23.328;2022-11-14T00:39:04;93858.56;;;4.08;100.00
6198;BME280;3132;42.622;23.328;2022-11-14T00:41:30;93863.97;;;4.00;100.00
6198;BME280;3132;42.622;23.328;2022-11-14T00:43:55;93863.97;;;4.00;100.00
6198;BME280;3132;42.622;23.328;2022-11-14T00:46:21;93862.81;;;3.96;100.00
6198;BME280;3132;42.622;23.328;2022-11-14T00:48:46;93850.34;;;3.87;100.00
6198;BME280;3132;42.622;23.328;2022-11-14T00:51:12;93874.72;;;3.97;100.00
6198;BME280;3132;42.622;23.328;2022-11-14T00:53:37;93868.78;;;3.97;100.00
6198;BME280;3132;42.622;23.328;2022-11-14T00:56:03;93828.88;;;3.86;100.00
6198;BME280;3132;42.622;23.328;2022-11-14T00:58:28;93851.88;;;3.94;100.00
6198;BME280;3132;42.622;23.328;2022-11-14T01:00:54;93855.13;;;3.83;100.00
6198;BME280;3132;42.622;23.328;2022-11-14T01:03:19;93837.13;;;3.70;100.00
6198;BME280;3132;42.622;23.328;2022-11-14T01:05:47;93849.22;;;3.76;100.00
6198;BME280;3132;42.622;23.328;2022-11-14T01:08:14;93837.34;;;3.69;100.00
6198;BME280;3132;42.622;23.328;2022-11-14T01:10:45;93853.94;;;3.86;100.00
6198;BME280;3132;42.622;23.328;2022-11-14T01:13:10;93839.09;;;3.75;100.00
6198;BME280;3132;42.622;23.328;2022-11-14T01:15:40;93838.06;;;3.82;100.00
6198;BME280;3132;42.622;23.328;2022-11-14T01:18:09;93853.72;;;3.87;100.00
6198;BME280;3132;42.622;23.328;2022-11-14T01:20:40;93861.13;;;3.77;100.00
6198;BME280;3132;42.622;23.328;2022-11-14T01:23:07;93857.13;;;3.81;100.00
6198;BME280;3132;42.622;23.328;2022-11-14T01:25:33;93847.53;;;3.88;100.00
6198;BME280;3132;42.622;23.328;2022-11-14T01:27:59;93841.38;;;3.89;100.00
6198;BME280;3132;42.622;23.328;2022-11-14T01:30:24;93830.53;;;3.74;100.00
6198;BME280;3132;42.622;23.328;2022-11-14T01:32:50;93837.88;;;3.77;100.00
6198;BME280;3132;42.622;23.328;2022-11-14T01:35:15;93799.06;;;3.53;100.00
6198;BME280;3132;42.622;23.328;2022-11-14T01:37:41;93834.31;;;3.78;100.00
6198;BME280;3132;42.622;23.328;2022-11-14T01:40:07;93829.72;;;3.80;100.00
6198;BME280;3132;42.622;23.328;2022-11-14T01:42:32;93825.19;;;3.69;100.00
6198;BME280;3132;42.622;23.328;2022-11-14T01:44:57;93825.56;;;3.79;100.00
6198;BME280;3132;42.622;23.328;2022-11-14T01:47:28;93823.97;;;3.78;100.00
6198;BME280;3132;42.622;23.328;2022-11-14T01:49:59;93823.34;;;3.83;100.00
6198;BME280;3132;42.622;23.328;2022-11-14T01:52:28;93817.22;;;3.77;100.00
6198;BME280;3132;42.622;23.328;2022-11-14T01:54:59;93818.22;;;3.76;100.00
6198;BME280;3132;42.622;23.328;2022-11-14T01:57:31;93821.78;;;3.75;100.00
6198;BME280;3132;42.622;23.328;2022-11-14T02:00:01;93811.44;;;3.75;100.00
6198;BME280;3132;42.622;23.328;2022-11-14T02:02:26;93812.47;;;3.74;100.00
6198;BME280;3132;42.622;23.328;2022-11-14T02:05:05;93812.63;;;3.79;100.00
6198;BME280;3132;42.622;23.328;2022-11-14T02:07:35;93808.84;;;3.82;100.00
6198;BME280;3132;42.622;23.328;2022-11-14T02:10:06;93794.56;;;3.79;100.00
6198;BME280;3132;42.622;23.328;2022-11-14T02:12:32;93773.72;;;3.74;100.00
6198;BME280;3132;42.622;23.328;2022-11-14T02:14:58;93781.66;;;3.79;100.00
6198;BME280;3132;42.622;23.328;2022-11-14T02:17:24;93774.78;;;3.67;100.00
6198;BME280;3132;42.622;23.328;2022-11-14T02:19:51;93798.47;;;3.88;100.00
6198;BME280;3132;42.622;23.328;2022-11-14T02:22:16;93749.56;;;3.62;100.00
6198;BME280;3132;42.622;23.328;2022-11-14T02:24:43;93802.63;;;3.89;100.00
6198;BME280;3132;42.622;23.328;2022-11-14T02:27:09;93799.78;;;3.97;100.00
6198;BME280;3132;42.622;23.328;2022-11-14T02:29:35;93806.44;;;3.87;100.00
6198;BME280;3132;42.622;23.328;2022-11-14T02:32:01;93803.47;;;3.83;100.00
6198;BME280;3132;42.622;23.328;2022-11-14T02:34:26;93801.53;;;3.72;100.00
6198;BME280;3132;42.622;23.328;2022-11-14T02:36:52;93809.47;;;3.77;100.00
6198;BME280;3132;42.622;23.328;2022-11-14T02:39:18;93795.22;;;3.68;100.00
6198;BME280;3132;42.622;23.328;2022-11-14T02:41:43;93795.91;;;3.82;100.00
6198;BME280;3132;42.622;23.328;2022-11-14T02:44:09;93796.31;;;3.85;100.00
6198;BME280;3132;42.622;23.328;2022-11-14T02:46:34;93796.31;;;3.85;100.00
6198;BME280;3132;42.622;23.328;2022-11-14T02:48:59;93793.97;;;3.77;100.00
6198;BME280;3132;42.622;23.328;2022-11-14T02:51:25;93788.47;;;3.67;100.00
6198;BME280;3132;42.622;23.328;2022-11-14T02:53:50;93791.06;;;3.67;100.00
6198;BME280;3132;42.622;23.328;2022-11-14T02:56:16;93788.81;;;3.77;100.00
6198;BME280;3132;42.622;23.328;2022-11-14T02:58:41;93790.09;;;3.62;100.00
6198;BME280;3132;42.622;23.328;2022-11-14T03:01:06;93784.50;;;3.65;100.00
6198;BME280;3132;42.622;23.328;2022-11-14T03:03:32;93775.03;;;3.52;100.00
6198;BME280;3132;42.622;23.328;2022-11-14T03:05:58;93770.69;;;3.53;100.00
6198;BME280;3132;42.622;23.328;2022-11-14T03:08:24;93785.50;;;3.64;100.00
6198;BME280;3132;42.622;23.328;2022-11-14T03:10:50;93768.63;;;3.61;100.00
6198;BME280;3132;42.622;23.328;2022-11-14T03:13:15;93784.34;;;3.60;100.00
6198;BME280;3132;42.622;23.328;2022-11-14T03:15:40;93782.59;;;3.47;100.00
6198;BME280;3132;42.622;23.328;2022-11-14T03:18:06;93789.28;;;3.61;100.00
6198;BME280;3132;42.622;23.328;2022-11-14T03:20:31;93771.47;;;3.53;100.00
6198;BME280;3132;42.622;23.328;2022-11-14T03:22:56;93793.22;;;3.70;100.00
6198;BME280;3132;42.622;23.328;2022-11-14T03:25:22;93782.53;;;3.67;100.00
6198;BME280;3132;42.622;23.328;2022-11-14T03:27:47;93787.13;;;3.58;100.00
6198;BME280;3132;42.622;23.328;2022-11-14T03:30:12;93781.41;;;3.56;100.00
6198;BME280;3132;42.622;23.328;2022-11-14T03:32:38;93773.09;;;3.48;100.00
6198;BME280;3132;42.622;23.328;2022-11-14T03:35:04;93782.78;;;3.52;100.00
6198;BME280;3132;42.622;23.328;2022-11-14T03:37:29;93774.88;;;3.47;100.00
6198;BME280;3132;42.622;23.328;2022-11-14T03:39:55;93738.22;;;3.32;100.00
6198;BME280;3132;42.622;23.328;2022-11-14T03:42:20;93773.75;;;3.68;100.00
6198;BME280;3132;42.622;23.328;2022-11-14T03:44:46;93765.91;;;3.56;100.00
6198;BME280;3132;42.622;23.328;2022-11-14T03:47:11;93774.06;;;3.53;100.00
6198;BME280;3132;42.622;23.328;2022-11-14T03:49:36;93773.47;;;3.51;100.00
6198;BME280;3132;42.622;23.328;2022-11-14T03:52:02;93783.59;;;3.53;100.00
6198;BME280;3132;42.622;23.328;2022-11-14T03:54:27;93765.03;;;3.31;100.00
6198;BME280;3132;42.622;23.328;2022-11-14T03:56:52;93774.72;;;3.42;100.00
6198;BME280;3132;42.622;23.328;2022-11-14T03:59:18;93752.91;;;3.31;100.00
6198;BME280;3132;42.622;23.328;2022-11-14T04:01:43;93751.94;;;3.33;100.00
6198;BME280;3132;42.622;23.328;2022-11-14T04:04:11;93758.28;;;3.30;100.00
6198;BME280;3132;42.622;23.328;2022-11-14T04:06:36;93783.19;;;3.49;100.00
6198;BME280;3132;42.622;23.328;2022-11-14T04:09:02;93772.28;;;3.47;100.00
6198;BME280;3132;42.622;23.328;2022-11-14T04:11:28;93763.22;;;3.38;100.00
6198;BME280;3132;42.622;23.328;2022-11-14T04:13:53;93766.63;;;3.32;100.00
6198;BME280;3132;42.622;23.328;2022-11-14T04:16:18;93766.16;;;3.42;100.00
6198;BME280;3132;42.622;23.328;2022-11-14T04:18:44;93724.44;;;3.13;100.00
6198;BME280;3132;42.622;23.328;2022-11-14T04:21:09;93773.16;;;3.35;100.00
6198;BME280;3132;42.622;23.328;2022-11-14T04:23:35;93776.31;;;3.37;100.00
6198;BME280;3132;42.622;23.328;2022-11-14T04:26:00;93765.97;;;3.43;100.00
6198;BME280;3132;42.622;23.328;2022-11-14T04:28:26;93761.13;;;3.22;100.00
6198;BME280;3132;42.622;23.328;2022-11-14T04:30:51;93751.25;;;3.12;100.00
6198;BME280;3132;42.622;23.328;2022-11-14T04:33:17;93751.38;;;3.24;100.00
6198;BME280;3132;42.622;23.328;2022-11-14T04:35:42;93760.84;;;3.30;100.00
6198;BME280;3132;42.622;23.328;2022-11-14T04:38:08;93713.22;;;2.95;100.00
6198;BME280;3132;42.622;23.328;2022-11-14T04:40:34;93755.75;;;3.23;100.00
6198;BME280;3132;42.622;23.328;2022-11-14T04:42:59;93743.47;;;3.19;100.00
6198;BME280;3132;42.622;23.328;2022-11-14T04:45:24;93708.00;;;3.08;100.00
6198;BME280;3132;42.622;23.328;2022-11-14T04:47:50;93764.53;;;3.47;100.00
6198;BME280;3132;42.622;23.328;2022-11-14T04:50:15;93768.38;;;3.38;100.00
6198;BME280;3132;42.622;23.328;2022-11-14T04:52:41;93754.13;;;3.29;100.00
6198;BME280;3132;42.622;23.328;2022-11-14T04:55:06;93765.22;;;3.36;100.00
6198;BME280;3132;42.622;23.328;2022-11-14T04:57:32;93757.91;;;3.33;100.00
6198;BME280;3132;42.622;23.328;2022-11-14T04:59:57;93753.06;;;3.43;100.00
6198;BME280;3132;42.622;23.328;2022-11-14T05:02:23;93744.56;;;3.36;100.00
6198;BME280;3132;42.622;23.328;2022-11-14T05:04:48;93756.84;;;3.41;100.00
6198;BME280;3132;42.622;23.328;2022-11-14T05:07:14;93748.72;;;3.37;100.00
6198;BME280;3132;42.622;23.328;2022-11-14T05:09:39;93758.47;;;3.35;100.00
6198;BME280;3132;42.622;23.328;2022-11-14T05:12:05;93733.31;;;3.24;100.00
6198;BME280;3132;42.622;23.328;2022-11-14T05:14:31;93753.09;;;3.37;100.00
6198;BME280;3132;42.622;23.328;2022-11-14T05:16:57;93760.63;;;3.38;100.00
6198;BME280;3132;42.622;23.328;2022-11-14T05:19:23;93765.22;;;3.36;100.00
6198;BME280;3132;42.622;23.328;2022-11-14T05:21:49;93762.06;;;3.65;100.00
6198;BME280;3132;42.622;23.328;2022-11-14T05:24:14;93769.00;;;3.65;100.00
6198;BME280;3132;42.622;23.328;2022-11-14T05:26:40;93772.31;;;3.78;100.00
6198;BME280;3132;42.622;23.328;2022-11-14T05:29:05;93765.06;;;3.62;100.00
6198;BME280;3132;42.622;23.328;2022-11-14T05:31:30;93757.97;;;3.51;100.00
6198;BME280;3132;42.622;23.328;2022-11-14T05:33:56;93757.06;;;3.39;100.00
6198;BME280;3132;42.622;23.328;2022-11-14T05:36:21;93769.91;;;3.46;100.00
6198;BME280;3132;42.622;23.328;2022-11-14T05:38:47;93772.91;;;3.43;100.00
6198;BME280;3132;42.622;23.328;2022-11-14T05:41:14;93768.78;;;3.35;100.00
6198;BME280;3132;42.622;23.328;2022-11-14T05:43:40;93770.94;;;3.38;100.00
6198;BME280;3132;42.622;23.328;2022-11-14T05:46:08;93767.25;;;3.21;100.00
6198;BME280;3132;42.622;23.328;2022-11-14T05:48:34;93772.56;;;3.39;100.00
6198;BME280;3132;42.622;23.328;2022-11-14T05:51:01;93768.03;;;3.28;100.00
6198;BME280;3132;42.622;23.328;2022-11-14T05:53:28;93774.75;;;3.36;100.00
6198;BME280;3132;42.622;23.328;2022-11-14T05:55:54;93774.03;;;3.22;100.00
6198;BME280;3132;42.622;23.328;2022-11-14T05:58:21;93782.59;;;3.47;100.00
6198;BME280;3132;42.622;23.328;2022-11-14T06:00:46;93779.97;;;3.60;100.00
6198;BME280;3132;42.622;23.328;2022-11-14T06:03:12;93770.47;;;3.85;100.00
6198;BME280;3132;42.622;23.328;2022-11-14T06:05:40;93779.72;;;3.99;100.00
6198;BME280;3132;42.622;23.328;2022-11-14T06:08:05;93774.13;;;3.78;100.00
6198;BME280;3132;42.622;23.328;2022-11-14T06:10:33;93771.09;;;3.50;100.00
6198;BME280;3132;42.622;23.328;2022-11-14T06:12:58;93780.75;;;3.67;100.00
6198;BME280;3132;42.622;23.328;2022-11-14T06:15:24;93789.97;;;3.50;100.00
6198;BME280;3132;42.622;23.328;2022-11-14T06:17:52;93795.28;;;3.55;100.00
6198;BME280;3132;42.622;23.328;2022-11-14T06:20:17;93796.66;;;3.95;100.00
6198;BME280;3132;42.622;23.328;2022-11-14T06:22:43;93784.53;;;3.89;100.00
6198;BME280;3132;42.622;23.328;2022-11-14T06:25:08;93792.03;;;3.97;100.00
6198;BME280;3132;42.622;23.328;2022-11-14T06:27:34;93790.00;;;3.81;100.00
6198;BME280;3132;42.622;23.328;2022-11-14T06:29:59;93792.94;;;3.47;100.00
6198;BME280;3132;42.622;23.328;2022-11-14T06:32:24;93791.78;;;3.43;100.00
6198;BME280;3132;42.622;23.328;2022-11-14T06:34:50;93789.78;;;3.45;100.00
6198;BME280;3132;42.622;23.328;2022-11-14T06:37:15;93798.88;;;3.54;100.00
6198;BME280;3132;42.622;23.328;2022-11-14T06:39:40;93791.97;;;3.79;100.00
6198;BME280;3132;42.622;23.328;2022-11-14T06:42:06;93790.00;;;3.81;100.00
6198;BME280;3132;42.622;23.328;2022-11-14T06:44:31;93787.63;;;3.80;100.00
6198;BME280;3132;42.622;23.328;2022-11-14T06:46:57;93786.72;;;3.61;100.00
6198;BME280;3132;42.622;23.328;2022-11-14T06:49:22;93782.59;;;3.54;100.00
6198;BME280;3132;42.622;23.328;2022-11-14T06:51:49;93782.94;;;3.64;100.00
6198;BME280;3132;42.622;23.328;2022-11-14T06:54:15;93777.97;;;3.62;100.00
6198;BME280;3132;42.622;23.328;2022-11-14T06:56:40;93775.50;;;3.74;100.00
6198;BME280;3132;42.622;23.328;2022-11-14T06:59:06;93767.88;;;3.61;100.00
6198;BME280;3132;42.622;23.328;2022-11-14T07:01:31;93770.06;;;3.88;100.00
6198;BME280;3132;42.622;23.328;2022-11-14T07:03:56;93774.81;;;3.91;100.00
6198;BME280;3132;42.622;23.328;2022-11-14T07:06:27;93778.22;;;3.85;100.00
6198;BME280;3132;42.622;23.328;2022-11-14T07:08:54;93772.72;;;3.75;100.00
6198;BME280;3132;42.622;23.328;2022-11-14T07:11:25;93774.00;;;3.91;100.00
6198;BME280;3132;42.622;23.328;2022-11-14T07:14:01;93773.31;;;4.02;100.00
6198;BME280;3132;42.622;23.328;2022-11-14T07:16:32;93774.59;;;4.17;100.00
6198;BME280;3132;42.622;23.328;2022-11-14T07:19:00;93777.78;;;4.19;100.00
6198;BME280;3132;42.622;23.328;2022-11-14T07:21:27;93777.13;;;4.48;100.00
6198;BME280;3132;42.622;23.328;2022-11-14T07:23:53;93775.97;;;4.44;100.00
6198;BME280;3132;42.622;23.328;2022-11-14T07:26:19;93778.78;;;4.43;100.00
6198;BME280;3132;42.622;23.328;2022-11-14T07:28:44;93777.81;;;4.62;100.00
6198;BME280;3132;42.622;23.328;2022-11-14T07:31:16;93766.38;;;4.69;100.00
6198;BME280;3132;42.622;23.328;2022-11-14T07:33:42;93781.06;;;4.75;100.00
6198;BME280;3132;42.622;23.328;2022-11-14T07:36:09;93783.22;;;4.78;100.00
6198;BME280;3132;42.622;23.328;2022-11-14T07:38:36;93774.06;;;5.12;100.00
6198;BME280;3132;42.622;23.328;2022-11-14T07:43:28;93762.91;;;5.30;99.43
6198;BME280;3132;42.622;23.328;2022-11-14T07:46:05;93768.38;;;5.22;99.38
6198;BME280;3132;42.622;23.328;2022-11-14T07:48:32;93763.22;;;5.22;99.57
6198;BME280;3132;42.622;23.328;2022-11-14T07:51:02;93762.44;;;5.21;99.96
6198;BME280;3132;42.622;23.328;2022-11-14T07:53:28;93764.09;;;4.79;100.00
6198;BME280;3132;42.622;23.328;2022-11-14T07:55:55;93765.38;;;5.07;100.00
6198;BME280;3132;42.622;23.328;2022-11-14T07:58:20;93760.06;;;5.20;100.00
6198;BME280;3132;42.622;23.328;2022-11-14T08:00:46;93763.56;;;5.25;100.00
6198;BME280;3132;42.622;23.328;2022-11-14T08:03:11;93757.88;;;5.35;100.00
6198;BME280;3132;42.622;23.328;2022-11-14T08:05:37;93765.22;;;5.38;100.00
6198;BME280;3132;42.622;23.328;2022-11-14T08:08:02;93775.22;;;5.64;99.99
6198;BME280;3132;42.622;23.328;2022-11-14T08:10:28;93766.94;;;5.73;98.29
6198;BME280;3132;42.622;23.328;2022-11-14T08:13:00;93760.03;;;5.38;98.74
6198;BME280;3132;42.622;23.328;2022-11-14T08:15:26;93769.06;;;5.47;99.39
6198;BME280;3132;42.622;23.328;2022-11-14T08:17:52;93759.97;;;5.74;98.30
6198;BME280;3132;42.622;23.328;2022-11-14T08:20:17;93759.38;;;5.72;98.95
6198;BME280;3132;42.622;23.328;2022-11-14T08:22:42;93752.59;;;5.89;96.78
6198;BME280;3132;42.622;23.328;2022-11-14T08:25:08;93757.72;;;5.48;99.11
6198;BME280;3132;42.622;23.328;2022-11-14T08:27:33;93714.69;;;5.17;100.00
6198;BME280;3132;42.622;23.328;2022-11-14T08:29:59;93758.81;;;5.70;99.41
6198;BME280;3132;42.622;23.328;2022-11-14T08:32:24;93727.34;;;5.55;99.35
6198;BME280;3132;42.622;23.328;2022-11-14T08:34:49;93739.91;;;5.69;97.09
6198;BME280;3132;42.622;23.328;2022-11-14T08:37:15;93724.91;;;5.42;98.99
6198;BME280;3132;42.622;23.328;2022-11-14T08:39:40;93740.88;;;5.39;99.94
6198;BME280;3132;42.622;23.328;2022-11-14T08:42:06;93755.25;;;5.53;100.00
6198;BME280;3132;42.622;23.328;2022-11-14T08:44:31;93759.50;;;5.77;100.00
6198;BME280;3132;42.622;23.328;2022-11-14T08:46:56;93749.63;;;5.85;98.79
6198;BME280;3132;42.622;23.328;2022-11-14T08:49:24;93690.06;;;5.56;98.53
6198;BME280;3132;42.622;23.328;2022-11-14T08:51:51;93731.38;;;5.80;98.51
6198;BME280;3132;42.622;23.328;2022-11-14T08:54:17;93746.91;;;6.10;97.04
6198;BME280;3132;42.622;23.328;2022-11-14T08:56:42;93745.38;;;5.91;99.54
6198;BME280;3132;42.622;23.328;2022-11-14T08:59:08;93744.66;;;6.25;98.12
6198;BME280;3132;42.622;23.328;2022-11-14T09:01:33;93731.56;;;6.20;98.17
6198;BME280;3132;42.622;23.328;2022-11-14T09:03:59;93748.22;;;6.01;98.80
6198;BME280;3132;42.622;23.328;2022-11-14T09:06:24;93724.00;;;6.18;99.10
6198;BME280;3132;42.622;23.328;2022-11-14T09:08:50;93731.25;;;6.39;97.97
6198;BME280;3132;42.622;23.328;2022-11-14T09:11:15;93727.63;;;6.40;98.27
6198;BME280;3132;42.622;23.328;2022-11-14T09:13:41;93683.66;;;6.34;97.21
6198;BME280;3132;42.622;23.328;2022-11-14T09:16:06;93717.38;;;6.57;97.20
6198;BME280;3132;42.622;23.328;2022-11-14T09:18:32;93715.34;;;6.36;97.40
6198;BME280;3132;42.622;23.328;2022-11-14T09:21:02;93711.28;;;6.40;97.81
6198;BME280;3132;42.622;23.328;2022-11-14T09:23:28;93717.03;;;6.65;96.88
6198;BME280;3132;42.622;23.328;2022-11-14T09:25:53;93709.34;;;6.70;96.39
6198;BME280;3132;42.622;23.328;2022-11-14T09:28:22;93713.78;;;6.58;97.83
6198;BME280;3132;42.622;23.328;2022-11-14T09:30:48;93706.53;;;6.37;99.02
6198;BME280;3132;42.622;23.328;2022-11-14T09:33:13;93710.03;;;6.54;98.98
6198;BME280;3132;42.622;23.328;2022-11-14T09:35:38;93713.88;;;6.40;98.90
6198;BME280;3132;42.622;23.328;2022-11-14T09:38:06;93708.81;;;6.57;98.90
6198;BME280;3132;42.622;23.328;2022-11-14T09:40:46;93714.16;;;6.90;96.84
6198;BME280;3132;42.622;23.328;2022-11-14T09:45:49;93709.38;;;6.47;99.98
6198;BME280;3132;42.622;23.328;2022-11-14T09:48:19;93694.59;;;6.59;98.53
6198;BME280;3132;42.622;23.328;2022-11-14T09:51:01;93710.66;;;6.96;96.66
6198;BME280;3132;42.622;23.328;2022-11-14T09:53:38;93667.47;;;6.78;96.06
6198;BME280;3132;42.622;23.328;2022-11-14T09:56:11;93694.00;;;6.69;97.12
6198;BME280;3132;42.622;23.328;2022-11-14T09:58:39;93696.84;;;6.67;98.26
6198;BME280;3132;42.622;23.328;2022-11-14T10:01:18;93689.06;;;6.55;98.28
6198;BME280;3132;42.622;23.328;2022-11-14T10:06:54;93684.94;;;7.22;95.49
6198;BME280;3132;42.622;23.328;2022-11-14T10:09:48;93680.41;;;7.29;94.54
6198;BME280;3132;42.622;23.328;2022-11-14T10:17:59;93659.66;;;7.46;93.53
6198;BME280;3132;42.622;23.328;2022-11-14T10:20:32;93664.25;;;7.55;93.78
6198;BME280;3132;42.622;23.328;2022-11-14T10:23:35;93646.41;;;7.75;92.33
6198;BME280;3132;42.622;23.328;2022-11-14T10:26:20;93664.59;;;7.75;93.31
6198;BME280;3132;42.622;23.328;2022-11-14T10:37:19;93646.63;;;8.40;89.21
6198;BME280;3132;42.622;23.328;2022-11-14T10:39:53;93649.28;;;8.45;88.91
6198;BME280;3132;42.622;23.328;2022-11-14T10:42:35;93638.28;;;8.38;89.48
6198;BME280;3132;42.622;23.328;2022-11-14T10:45:18;93637.50;;;8.59;89.02
6198;BME280;3132;42.622;23.328;2022-11-14T10:48:06;93633.25;;;8.53;90.96
6198;BME280;3132;42.622;23.328;2022-11-14T10:50:56;93634.38;;;8.79;89.45
6198;BME280;3132;42.622;23.328;2022-11-14T10:55:54;93623.97;;;9.00;87.14
6198;BME280;3132;42.622;23.328;2022-11-14T10:58:20;93619.31;;;9.02;88.20
6198;BME280;3132;42.622;23.328;2022-11-14T11:00:45;93627.28;;;9.17;86.47
6198;BME280;3132;42.622;23.328;2022-11-14T11:03:11;93618.34;;;9.35;85.02
6198;BME280;3132;42.622;23.328;2022-11-14T11:05:50;93624.69;;;9.44;83.83
6198;BME280;3132;42.622;23.328;2022-11-14T11:08:20;93623.63;;;9.18;85.64
6198;BME280;3132;42.622;23.328;2022-11-14T11:11:11;93600.88;;;9.09;86.70
6198;BME280;3132;42.622;23.328;2022-11-14T11:13:57;93613.56;;;9.27;87.36
6198;BME280;3132;42.622;23.328;2022-11-14T11:16:25;93619.41;;;9.39;87.93
6198;BME280;3132;42.622;23.328;2022-11-14T11:18:51;93614.63;;;9.31;86.07
6198;BME280;3132;42.622;23.328;2022-11-14T11:21:21;93613.25;;;9.50;85.07
6198;BME280;3132;42.622;23.328;2022-11-14T11:26:23;93609.63;;;9.82;82.34
6198;BME280;3132;42.622;23.328;2022-11-14T11:31:49;93588.72;;;9.77;81.89
6198;BME280;3132;42.622;23.328;2022-11-14T11:34:21;93602.84;;;9.82;81.87
6198;BME280;3132;42.622;23.328;2022-11-14T11:36:52;93607.38;;;9.91;80.30
6198;BME280;3132;42.622;23.328;2022-11-14T11:39:24;93602.34;;;9.85;80.91
6198;BME280;3132;42.622;23.328;2022-11-14T11:41:51;93598.28;;;9.67;80.36
6198;BME280;3132;42.622;23.328;2022-11-14T11:44:20;93611.06;;;10.00;80.71
6198;BME280;3132;42.622;23.328;2022-11-14T11:47:00;93608.59;;;10.15;79.04
6198;BME280;3132;42.622;23.328;2022-11-14T11:49:39;93598.00;;;9.95;79.36
6198;BME280;3132;42.622;23.328;2022-11-14T11:52:17;93596.94;;;9.91;79.40
6198;BME280;3132;42.622;23.328;2022-11-14T11:54:58;93583.16;;;9.64;81.09
6198;BME280;3132;42.622;23.328;2022-11-14T11:57:33;93595.78;;;9.77;81.92
6198;BME280;3132;42.622;23.328;2022-11-14T12:02:41;93574.97;;;9.87;81.04
6198;BME280;3132;42.622;23.328;2022-11-14T12:05:16;93583.56;;;10.14;79.79
6198;BME280;3132;42.622;23.328;2022-11-14T12:10:19;93569.06;;;10.38;77.67
6198;BME280;3132;42.622;23.328;2022-11-14T12:21:13;93583.50;;;10.56;78.46
6198;BME280;3132;42.622;23.328;2022-11-14T12:24:05;93575.44;;;10.62;77.52
6198;BME280;3132;42.622;23.328;2022-11-14T12:32:09;93571.22;;;10.51;78.68
6198;BME280;3132;42.622;23.328;2022-11-14T12:34:38;93573.91;;;10.61;78.26
6198;BME280;3132;42.622;23.328;2022-11-14T12:37:08;93559.47;;;10.54;78.26
6198;BME280;3132;42.622;23.328;2022-11-14T12:39:35;93558.81;;;10.83;76.70
6198;BME280;3132;42.622;23.328;2022-11-14T12:42:03;93556.78;;;11.05;75.34
6198;BME280;3132;42.622;23.328;2022-11-14T12:58:06;93551.53;;;10.90;77.77
6198;BME280;3132;42.622;23.328;2022-11-14T13:01:02;93551.53;;;10.90;78.45
6198;BME280;3132;42.622;23.328;2022-11-14T13:06:18;93536.91;;;10.99;77.01
6198;BME280;3132;42.622;23.328;2022-11-14T13:14:15;93542.97;;;11.05;76.67
6198;BME280;3132;42.622;23.328;2022-11-14T13:19:59;93532.25;;;11.06;76.44
6198;BME280;3132;42.622;23.328;2022-11-14T13:22:45;93543.50;;;11.32;75.22
6198;BME280;3132;42.622;23.328;2022-11-14T13:27:36;93538.53;;;11.20;75.99
6198;BME280;3132;42.622;23.328;2022-11-14T13:30:05;93531.97;;;11.03;76.18
6198;BME280;3132;42.622;23.328;2022-11-14T13:40:30;93518.84;;;10.21;81.19
6198;BME280;3132;42.622;23.328;2022-11-14T13:51:33;93529.31;;;9.85;84.77
6198;BME280;3132;42.622;23.328;2022-11-14T13:53:59;93530.09;;;9.80;85.42
6198;BME280;3132;42.622;23.328;2022-11-14T13:56:51;93531.31;;;9.67;86.04
6198;BME280;3132;42.622;23.328;2022-11-14T14:14:02;93500.19;;;8.93;87.71
6198;BME280;3132;42.622;23.328;2022-11-14T14:16:50;93513.06;;;8.78;88.73
6198;BME280;3132;42.622;23.328;2022-11-14T14:19:56;93512.06;;;8.84;88.62
6198;BME280;3132;42.622;23.328;2022-11-14T14:25:30;93513.19;;;8.66;88.19
6198;BME280;3132;42.622;23.328;2022-11-14T14:28:17;93504.50;;;8.56;88.59
6198;BME280;3132;42.622;23.328;2022-11-14T14:31:01;93494.63;;;8.36;89.64
6198;BME280;3132;42.622;23.328;2022-11-14T14:33:27;93497.41;;;8.30;89.89
6198;BME280;3132;42.622;23.328;2022-11-14T14:35:54;93507.22;;;8.23;90.34
6198;BME280;3132;42.622;23.328;2022-11-14T14:38:25;93495.72;;;8.18;90.15
6198;BME280;3132;42.622;23.328;2022-11-14T14:40:53;93495.00;;;8.06;90.55
6198;BME280;3132;42.622;23.328;2022-11-14T14:43:33;93508.50;;;8.03;91.04
6198;BME280;3132;42.622;23.328;2022-11-14T14:45:59;93497.19;;;7.93;91.34
6198;BME280;3132;42.622;23.328;2022-11-14T14:48:30;93473.28;;;7.74;91.21
6198;BME280;3132;42.622;23.328;2022-11-14T14:50:59;93485.88;;;7.82;91.16
6198;BME280;3132;42.622;23.328;2022-11-14T14:53:34;93498.31;;;7.80;90.97
6198;BME280;3132;42.622;23.328;2022-11-14T14:56:17;93496.03;;;7.67;91.53
6198;BME280;3132;42.622;23.328;2022-11-14T14:58:42;93497.47;;;7.58;91.84
6198;BME280;3132;42.622;23.328;2022-11-14T15:03:37;93486.78;;;7.38;92.98
6198;BME280;3132;42.622;23.328;2022-11-14T15:06:06;93489.31;;;7.33;92.79
6198;BME280;3132;42.622;23.328;2022-11-14T15:08:41;93488.53;;;7.33;92.21
6198;BME280;3132;42.622;23.328;2022-11-14T15:11:07;93488.53;;;7.33;92.35
6198;BME280;3132;42.622;23.328;2022-11-14T15:13:32;93479.72;;;7.17;92.45